YPPD/PHE METAR and TAF weather

Enter ICAO airport designator
Station Type Date Time Source
YPPD METAR 2023/10/01 22:00 UTC NOAA

YPPD 012200Z AUTO 27004KT 9999 // NCD 20/16 Q1012 RF00.0/000.0


Station Type Date Time Source
YPPD Decoded METAR 2023/10/01 22:00 UTC NOAA

Port Hedland Pardoo, Australia (YPPD) 20-06S 119-34E 10M
Oct 01, 2023 - 06:00 PM EDT / 2023.10.01 2200 UTC
Wind: from the W (270 degrees) at 5 MPH (4 KT):0
Visibility: greater than 7 mile(s):0
Temperature: 68 F (20 C)
Dew Point: 60 F (16 C)
Relative Humidity: 77%
Pressure (altimeter): 29.88 in. Hg (1012 hPa)
ob: YPPD 012200Z AUTO 27004KT 9999 // NCD 20/16 Q1012 RF00.0/000.0
cycle: 22

Station Type Date Time Source
YPPD TAF 2023/10/01 18:36 UTC NOAA

TAF YPPD 011720Z 0118/0218 24010KT CAVOK
FM020300 29016KT CAVOK
FM021000 28010KT CAVOK
BECMG 0217/0218 17007KT CAVOK

Example: see airport list